AirNav   TITAN Aviation Fuels
 
 1490 users online  

1MO8 Sherlock Field Airport
Gravois Mills, Missouri, USA

GOING TO GRAVOIS MILLS?


FAA INFORMATION EFFECTIVE 03 NOVEMBER 2022

Location

FAA Identifier: 1MO8
Lat/Long: 38-15-10.1060N 092-48-10.6850W
38-15.168433N 092-48.178083W
38.2528072,-92.8029681
(estimated)
Elevation: 800 ft. / 244 m (estimated)
Variation: 04E (1985)
From city: 3 miles SE of GRAVOIS MILLS, MO
Time zone: UTC -6 (UTC -5 during Daylight Saving Time)
Zip code: 65037

Airport Operations

Airport use: Private use. Permission required prior to landing
Activation date: 03/1945
Control tower: no
ARTCC: KANSAS CITY CENTER
FSS: COLUMBIA FLIGHT SERVICE STATION
Attendance: CONTINUOUS
Wind indicator: yes
Segmented circle: no

Airport Communications

WX AWOS-3PT at AIZ (15 nm SE): 135.325 (573-348-0847)
WX AWOS-3 at OZS (18 nm S): 120.225 (573-317-0412)

Nearby radio navigation aids

VOR radial/distance  VOR name  Freq  Var
SHYr323/15.9SUNSHINE VOR/DME108.4000E

Airport Services

Airframe service: NONE
Powerplant service: NONE

Runway Information

Runway N/S

Dimensions: 2640 x 120 ft. / 805 x 37 m
Surface: turf
RUNWAY N  RUNWAY S
Traffic pattern: leftleft
Obstructions: nonetrees

Airport Ownership and Management from official FAA records

Ownership: Privately-owned
Owner: H.L. 'TOM'/EDNA M. WEBB
331C RT 3
GRAVOIS MILLS, MO 65037
Phone 800-372-3641
Manager: H.L. 'TOM'/EDNA M. WEBB
331C RT 3
GRAVOIS MILLS, MO 65037
Phone 800-372-3641

Additional Remarks

FOR CD CTC MIZZOU APCH AT 417-868-5620/5619.

Instrument Procedures

There are no published instrument procedures at 1MO8.

Some nearby airports with instrument procedures:

K15 - Grand Glaize-Osage Beach Airport (10 nm SE)
H79 - Eldon Model Airpark (13 nm NE)
KAIZ - Lee C Fine Memorial Airport (15 nm SE)
KOZS - Camdenton Memorial-Lake Regional Airport (18 nm S)
KRAW - Warsaw Municipal Airport (26 nm W)
 
Loc | Ops | Rwys | IFR | FBO | Links
Com | Nav | Svcs | Stats | Notes
Area around 1MO8 (Sherlock Field Airport)
 
Road maps at: MapQuest Bing Google
 
Aerial photo
No photo
 
Sectional chart

 
Airport distance calculator
Flying to Sherlock Field Airport? Find the distance to fly.

From to 1MO8

Sunrise and sunset
Times for 29-Nov-2022
 Local
(UTC-6)
 Zulu
(UTC)
Morning civil twilight06:3912:39
Sunrise07:0813:08
Sunset16:5122:51
Evening civil twilight17:2023:20

Current date and time
Zulu (UTC)  29-Nov-2022 17:29:30
Local (UTC-6)  29-Nov-2022 11:29:30
 
METAR
KAIZ 
16nm SE 
291656Z AUTO 19014G18KT 10SM OVC034 18/11 RMK AO2 PK WND 18027/1558 SLPNO T01780111 $
KOZS 
18nm S 
291715Z AUTO 21013G24KT 10SM OVC030 17/10 A2956 RMK AO2 LTG DSNT E
KRAW 
26nm W 
291715Z AUTO 23020G26KT 10SM OVC037 17/10 A2952 RMK AO2 LTG DSNT E
TAF
KJEF 
37nm NE 
291120Z 2912/3012 14011G21KT P6SM OVC250 FM291500 17014G29KT P6SM BKN250 FM292000 22016G29KT P6SM BKN045 FM292300 28015G25KT P6SM SCT025
KCOU 
44nm NE 
291120Z 2912/3012 16014G24KT P6SM OVC250 FM291500 18015G31KT P6SM BKN200 FM292000 22016G29KT P6SM BKN045 FM292300 28016G28KT P6SM SCT025
KSZL 
44nm NW 
291432Z 2914/3017 19020G30KT 9999 BKN025 BKN200 540203 QNH2942INS BECMG 2914/2915 19020G30KT 9999 OVC030 QNH2943INS TEMPO 2915/2919 19025G35KT OVC020 540203 BECMG 2918/2919 22015G25KT 9999 OVC030 QNH2944INS TEMPO 2919/3003 23025G35KT OVC020 540203 BECMG 3003/3004 30015KT 9999 BKN030 620302 QNH2983INS TX16/2918Z TNM04/3011Z
KTBN 
46nm SE 
291400Z 2914/3020 18012G24KT 9999 SCT020 520053 QNH2963INS BECMG 2917/2918 20025G35KT 9999 BKN020 510033 QNH2959INS BECMG 2920/2921 22015G30KT 9999 SCT025 OVC040 510022 QNH2956INS BECMG 3002/3003 30012KT 9999 SCT020 QNH2987INS TX19/2920Z TNM04/3011Z
NOTAMs
Click for the latest NOTAMs
NOTAMs are issued by the DoD/FAA and will open in a separate window not controlled by AirNav.

 

 
 

Would you like to see your business listed on this page?

 If your business provides an interesting product or service to pilots, flight crews, aircraft, or users of the Sherlock Field Airport, you should consider listing it here.  To start the listing process, click on the button below
 
Add a business
 

Other Pages about Sherlock Field Airport

Update a link
 
Copyright © AirNav, LLC. All rights reserved. Privacy Policy  Contact